createdAt,value
2019-02-07T00:00:21.551Z,16.18
2019-02-07T00:03:51.671Z,13.98
2019-02-07T00:07:22.772Z,12.64
2019-02-07T00:10:52.992Z,14.31
2019-02-07T00:14:23.282Z,13.5
2019-02-07T00:17:53.384Z,14.39
2019-02-07T00:21:23.564Z,14.25
2019-02-07T00:24:53.594Z,12.35
2019-02-07T00:28:23.705Z,15.32
2019-02-07T00:31:53.865Z,9.86
2019-02-07T00:35:24.035Z,14.95
2019-02-07T00:38:54.125Z,4.45
2019-02-07T00:42:24.196Z,15
2019-02-07T00:45:54.276Z,14.39
2019-02-07T00:49:24.476Z,15.16
2019-02-07T00:52:54.547Z,15.99
2019-02-07T00:56:25.087Z,15.44
2019-02-07T00:59:55.658Z,13.51
2019-02-07T01:03:25.838Z,13.33
2019-02-07T01:06:55.858Z,13.52
2019-02-07T01:10:26.419Z,14.03
2019-02-07T01:13:56.489Z,12.52
2019-02-07T01:17:26.770Z,13.06
2019-02-07T01:20:56.910Z,14.7
2019-02-07T01:24:27.210Z,16.07
2019-02-07T01:27:57.331Z,12.06
2019-02-07T01:31:27.551Z,11.69
2019-02-07T01:34:57.752Z,11.89
2019-02-07T01:38:28.013Z,12.68
2019-02-07T01:41:58.163Z,13.35
2019-02-07T01:45:28.373Z,12.59
2019-02-07T01:48:58.613Z,11.64
2019-02-07T01:52:28.824Z,12.57
2019-02-07T01:55:58.983Z,11.99
2019-02-07T01:59:29.195Z,11.24
2019-02-07T02:00:16.384Z,13.74
2019-02-07T02:03:46.595Z,11.85
2019-02-07T02:07:16.815Z,12.55
2019-02-07T02:10:48.247Z,12.75
2019-02-07T02:14:18.386Z,14.15
2019-02-07T02:17:49.169Z,13.94
2019-02-07T02:21:19.279Z,12.78
2019-02-07T02:24:49.767Z,5.6
2019-02-07T02:28:20.287Z,4.4
2019-02-07T02:31:50.488Z,14.26
2019-02-07T02:35:20.738Z,13.12
2019-02-07T02:38:50.824Z,15.59
2019-02-07T02:42:21.049Z,11.8
2019-02-07T02:45:51.153Z,12.93
2019-02-07T02:49:21.398Z,12.84
2019-02-07T02:52:51.614Z,14.36
2019-02-07T02:56:21.821Z,15.64
2019-02-07T02:59:51.923Z,13.77
2019-02-07T03:03:28.401Z,13.4
2019-02-07T03:07:38.092Z,11.86
2019-02-07T03:12:27.263Z,11.89
2019-02-07T03:28:59.286Z,12.8
2019-02-07T03:32:53.336Z,13.46
2019-02-07T03:36:36.325Z,12.4
2019-02-07T03:43:10.980Z,10.72
2019-02-07T03:52:01.382Z,11.21
2019-02-07T03:55:43.268Z,9.55
2019-02-07T03:59:21.617Z,10.14
2019-02-07T04:08:00.039Z,11.16
2019-02-07T04:16:41.103Z,11.96
2019-02-07T04:20:21.606Z,11.64
2019-02-07T04:24:18.080Z,11.79
2019-02-07T04:28:12.292Z,9.93
2019-02-07T04:31:53.030Z,10.57
2019-02-07T04:35:33.351Z,11.26
2019-02-07T04:41:38.337Z,10.96
2019-02-07T04:49:17.953Z,9.27
2019-02-07T04:55:29.260Z,9.59
2019-02-07T05:00:32.667Z,9.91
2019-02-07T05:04:12.356Z,8.22
2019-02-07T05:07:51.304Z,10.28
2019-02-07T05:11:59.673Z,8.57
2019-02-07T05:15:44.601Z,6.5
2019-02-07T05:23:20.206Z,8.3
2019-02-07T05:28:04.765Z,8.86
2019-02-07T05:31:48.868Z,9.7
2019-02-07T05:36:03.270Z,11.2
2019-02-07T05:39:50.904Z,9.89
2019-02-07T05:43:36.626Z,9.81
2019-02-07T05:47:19.555Z,9.3
2019-02-07T05:51:39.093Z,11.43
2019-02-07T05:55:20.451Z,8.68
2019-02-07T05:59:07.699Z,6.69
2019-02-07T06:00:40.540Z,10.38
2019-02-07T06:04:39.447Z,9.96
2019-02-07T06:08:21.875Z,6.74
2019-02-07T06:12:35.463Z,4.88
2019-02-07T06:16:31.642Z,9.29
2019-02-07T06:20:12.239Z,8.8
2019-02-07T06:23:55.778Z,6.3
2019-02-07T06:27:37.347Z,8.91
2019-02-07T06:32:21.958Z,8.91
2019-02-07T06:36:03.302Z,9.73
2019-02-07T06:39:49.327Z,9.22
2019-02-07T06:43:38.217Z,9.3
2019-02-07T06:48:20.046Z,8.38
2019-02-07T06:52:03.346Z,9.06
2019-02-07T06:55:55.545Z,9.85
2019-02-07T06:59:39.869Z,10.31
2019-02-07T07:04:24.557Z,10.88
2019-02-07T07:12:51.155Z,9.64
2019-02-07T07:18:00.667Z,10.09
2019-02-07T07:21:43.741Z,10.19
2019-02-07T07:25:32.749Z,9.66
2019-02-07T07:29:14.147Z,9.62
2019-02-07T07:33:01.365Z,8.93
2019-02-07T07:36:50.404Z,10.88
2019-02-07T07:40:33.884Z,9.12
2019-02-07T07:44:27.231Z,11
2019-02-07T07:51:01.128Z,9.15
2019-02-07T07:55:10.916Z,5.69
2019-02-07T07:58:55.183Z,8.7
2019-02-07T08:05:10.231Z,9.99
2019-02-07T08:11:10.528Z,8.8
2019-02-07T08:15:06.766Z,10.81
2019-02-07T08:21:29.383Z,9.85
2019-02-07T08:26:29.011Z,9.03
2019-02-07T08:30:13.410Z,8.99
2019-02-07T08:39:09.376Z,4.91
2019-02-07T08:42:52.174Z,9.84
2019-02-07T08:46:50.226Z,7.67
2019-02-07T08:50:32.411Z,4.74
2019-02-07T08:54:15.793Z,9.4
2019-02-07T09:01:17.466Z,9.21
2019-02-07T09:05:04.573Z,9.2
2019-02-07T09:10:17.190Z,6.38
2019-02-07T09:14:03.930Z,10.41
2019-02-07T09:17:48.415Z,6.96
2019-02-07T09:21:29.667Z,10.32
2019-02-07T09:25:09.274Z,10.76
2019-02-07T09:28:54.312Z,8.05
2019-02-07T09:37:17.007Z,4.09
2019-02-07T09:46:49.242Z,8.36
2019-02-07T09:50:37.286Z,6.21
2019-02-07T09:54:17.220Z,9.41
2019-02-07T09:57:54.009Z,6.38
2019-02-07T10:00:26.808Z,4.96
2019-02-07T10:04:21.275Z,10.84
2019-02-07T10:08:07.984Z,10.38
2019-02-07T10:12:10.892Z,7.69
2019-02-07T10:15:52.221Z,10.55
2019-02-07T10:19:36.918Z,8.8
2019-02-07T10:24:26.679Z,6.28
2019-02-07T10:28:39.617Z,4.64
2019-02-07T10:32:23.922Z,4.93
2019-02-07T10:39:44.371Z,9.11
2019-02-07T10:43:42.437Z,8.9
2019-02-07T10:47:24.775Z,11.02
2019-02-07T10:51:03.713Z,4.61
2019-02-07T10:56:19.720Z,8.85
2019-02-07T11:06:21.206Z,8.32
2019-02-07T11:10:09.575Z,9.06
2019-02-07T11:13:53.813Z,9.68
2019-02-07T11:17:35.546Z,9.19
2019-02-07T11:22:06.439Z,10.29
2019-02-07T11:25:56.527Z,8.51
2019-02-07T11:30:40.755Z,9.97
2019-02-07T11:34:26.387Z,9.95
2019-02-07T11:38:08.872Z,9.34
2019-02-07T11:41:50.642Z,10.93
2019-02-07T11:45:30.078Z,10.47
2019-02-07T11:49:11.357Z,8.62
2019-02-07T11:53:07.535Z,9.49
2019-02-07T11:56:46.704Z,8.28
2019-02-07T12:00:32.472Z,9.8
2019-02-07T12:04:12.251Z,8.94
2019-02-07T12:08:23.419Z,8.53
2019-02-07T12:13:06.326Z,10.06
2019-02-07T12:16:46.540Z,6.78
2019-02-07T12:23:37.102Z,7.72
2019-02-07T12:27:35.450Z,7.68
2019-02-07T12:31:14.768Z,9.12
2019-02-07T12:34:59.317Z,8.12
2019-02-07T12:39:23.663Z,7.51
2019-02-07T12:43:10.053Z,7.38
2019-02-07T12:49:44.460Z,9.01
2019-02-07T12:53:26.088Z,7.46
2019-02-07T12:57:06.897Z,10.19
2019-02-07T13:03:08.153Z,6.53
2019-02-07T13:09:16.591Z,7.38
2019-02-07T13:16:04.705Z,8.59
2019-02-07T13:19:46.812Z,7.14
2019-02-07T13:23:38.065Z,7.92
2019-02-07T13:27:17.946Z,6.56
2019-02-07T13:33:17.525Z,6.05
2019-02-07T13:37:11.265Z,6.67
2019-02-07T13:44:23.617Z,8.36
2019-02-07T13:48:04.321Z,7.6
2019-02-07T13:51:47.851Z,7.81
2019-02-07T13:55:28.253Z,7.46
2019-02-07T13:59:39.440Z,3.45
2019-02-07T14:00:23.771Z,4.79
2019-02-07T14:06:45.388Z,5.89
2019-02-07T14:12:44.235Z,8.22
2019-02-07T14:16:32.793Z,5.3
2019-02-07T14:20:25.009Z,8.99
2019-02-07T14:24:04.345Z,6.96
2019-02-07T14:27:45.515Z,3.15
2019-02-07T14:31:27.953Z,7.1
2019-02-07T14:37:36.319Z,5.58
2019-02-07T14:41:45.509Z,7.43
2019-02-07T14:45:39.719Z,7.25
2019-02-07T14:49:09.808Z,6.32
2019-02-07T14:52:39.968Z,7.69
2019-02-07T14:56:10.058Z,9.24
2019-02-07T14:59:40.278Z,6.2
2019-02-07T15:03:10.518Z,6.86
2019-02-07T15:06:40.738Z,6.91
2019-02-07T15:10:12.707Z,6.25
2019-02-07T15:13:42.867Z,7.18
2019-02-07T15:17:12.947Z,6.46
2019-02-07T15:20:43.137Z,7.73
2019-02-07T15:24:13.208Z,5.9
2019-02-07T15:27:43.396Z,8.99
2019-02-07T15:31:13.496Z,7.85
2019-02-07T15:34:43.637Z,8.84
2019-02-07T15:38:14.615Z,4.7
2019-02-07T15:41:45.316Z,6.5
2019-02-07T15:45:15.536Z,6.95
2019-02-07T15:48:45.775Z,5.81
2019-02-07T15:52:15.975Z,4.58
2019-02-07T15:55:46.236Z,6.95
2019-02-07T15:59:21.934Z,4.11
2019-02-07T16:00:37.354Z,7.89
2019-02-07T16:04:11.983Z,7.16
2019-02-07T16:07:42.388Z,5.68
2019-02-07T16:11:12.813Z,5.16
2019-02-07T16:14:42.972Z,7.43
2019-02-07T16:18:13.123Z,4.75
2019-02-07T16:21:43.292Z,4.77
2019-02-07T16:25:13.812Z,5.71
2019-02-07T16:28:43.932Z,4.69
2019-02-07T16:32:14.263Z,6.75
2019-02-07T16:35:44.351Z,2.06
2019-02-07T16:39:15.681Z,5.79
2019-02-07T16:42:45.821Z,3.81
2019-02-07T16:46:15.840Z,6.42
2019-02-07T16:49:46.031Z,6.6
2019-02-07T16:53:16.160Z,6.28
2019-02-07T16:56:46.310Z,5.81
2019-02-07T17:00:18.820Z,3.26
2019-02-07T17:03:48.858Z,5.04
2019-02-07T17:07:18.919Z,5.35
2019-02-07T17:10:49.038Z,4.64
2019-02-07T17:14:19.538Z,5.19
2019-02-07T17:17:49.848Z,5.41
2019-02-07T17:21:20.017Z,5.33
2019-02-07T17:24:50.128Z,4.26
2019-02-07T17:28:20.246Z,4.62
2019-02-07T17:31:50.266Z,4.64
2019-02-07T17:35:20.766Z,2.27
2019-02-07T17:38:50.956Z,5.12
2019-02-07T17:42:22.015Z,5.35
2019-02-07T17:45:52.175Z,5.05
2019-02-07T17:49:22.365Z,3.96
2019-02-07T17:52:52.612Z,4.9
2019-02-07T17:56:22.734Z,6.62
2019-02-07T17:59:52.904Z,2.54
2019-02-07T18:00:24.125Z,2.79
2019-02-07T18:03:54.154Z,3.76
2019-02-07T18:07:24.278Z,2.9
2019-02-07T18:10:54.435Z,4.08
2019-02-07T18:14:24.508Z,6.43
2019-02-07T18:17:54.563Z,6.86
2019-02-07T18:21:33.939Z,6
2019-02-07T18:25:05.212Z,3.86
2019-02-07T18:28:35.373Z,1.85
2019-02-07T18:32:05.531Z,6.7
2019-02-07T18:35:35.671Z,7.95
2019-02-07T18:39:07.916Z,5.16
2019-02-07T18:42:39.071Z,2.31
2019-02-07T18:46:09.181Z,5.6
2019-02-07T18:49:39.282Z,5.85
2019-02-07T18:53:09.394Z,5.5
2019-02-07T18:56:39.419Z,8.1
2019-02-07T19:00:13.469Z,6.24
2019-02-07T19:03:43.528Z,5.45
2019-02-07T19:07:13.805Z,5.95
2019-02-07T19:10:43.898Z,7.35
2019-02-07T19:14:14.098Z,5.31
2019-02-07T19:17:44.347Z,6.4
2019-02-07T19:21:14.537Z,5.44
2019-02-07T19:24:44.677Z,7.21
2019-02-07T19:28:14.846Z,6.33
2019-02-07T19:31:45.016Z,3.96
2019-02-07T19:35:15.306Z,7.25
2019-02-07T19:38:45.516Z,6.26
2019-02-07T19:42:15.765Z,4.72
2019-02-07T19:45:46.065Z,5.05
2019-02-07T19:49:16.295Z,7.2
2019-02-07T19:52:46.804Z,5.3
2019-02-07T19:56:16.881Z,7.21
2019-02-07T19:59:46.964Z,3.7
2019-02-07T20:00:25.464Z,6.24
2019-02-07T20:03:55.604Z,2.81
2019-02-07T20:07:25.714Z,6.45
2019-02-07T20:10:55.913Z,6.03
2019-02-07T20:14:26.083Z,2.41
2019-02-07T20:17:56.313Z,5.47
2019-02-07T20:21:26.552Z,6.61
2019-02-07T20:24:56.581Z,7.12
2019-02-07T20:28:26.715Z,3.84
2019-02-07T20:31:56.769Z,6.44
2019-02-07T20:35:27.000Z,8.15
2019-02-07T20:38:57.150Z,5.83
2019-02-07T20:42:27.203Z,6.83
2019-02-07T20:45:58.300Z,6.95
2019-02-07T20:49:28.360Z,4.24
2019-02-07T20:52:58.509Z,6.09
2019-02-07T20:56:28.669Z,7.28
2019-02-07T20:59:58.889Z,5.97
2019-02-07T21:03:28.960Z,8.96
2019-02-07T21:06:59.247Z,6.23
2019-02-07T21:10:30.437Z,6.51
2019-02-07T21:14:00.659Z,8.07
2019-02-07T21:17:30.863Z,6.91
2019-02-07T21:21:01.036Z,8.03
2019-02-07T21:24:31.347Z,6.11
2019-02-07T21:28:01.856Z,6.45
2019-02-07T21:31:32.265Z,8.7
2019-02-07T21:35:03.254Z,7.89
2019-02-07T21:38:33.324Z,9.03
2019-02-07T21:42:03.816Z,5.45
2019-02-07T21:45:33.977Z,9.51
2019-02-07T21:49:05.405Z,5.84
2019-02-07T21:52:41.821Z,7.83
2019-02-07T21:56:12.164Z,7.35
2019-02-07T21:59:42.263Z,6.97
2019-02-07T22:00:21.994Z,10.82
2019-02-07T22:03:52.412Z,7.07
2019-02-07T22:07:22.522Z,9.11
2019-02-07T22:10:52.661Z,8.76
2019-02-07T22:14:22.741Z,9.55
2019-02-07T22:17:52.861Z,9.45
2019-02-07T22:21:22.952Z,10.55
2019-02-07T22:24:53.169Z,10.65
2019-02-07T22:28:23.290Z,8.72
2019-02-07T22:31:53.462Z,6.4
2019-02-07T22:35:23.769Z,5.9
2019-02-07T22:38:54.008Z,10.55
2019-02-07T22:42:24.108Z,8.49
2019-02-07T22:45:54.178Z,7.21
2019-02-07T22:49:25.153Z,8.03
2019-02-07T22:52:56.937Z,6.33
2019-02-07T22:56:27.455Z,9.51
2019-02-07T22:59:57.487Z,7.41
2019-02-07T23:03:27.556Z,8.51
2019-02-07T23:06:57.607Z,5.99
2019-02-07T23:10:27.775Z,8.31
2019-02-07T23:13:58.075Z,10.99
2019-02-07T23:17:28.494Z,6.94
2019-02-07T23:20:59.044Z,9.59
2019-02-07T23:24:29.017Z,10.01
2019-02-07T23:27:59.455Z,4.11
2019-02-07T23:31:29.475Z,8.84
2019-02-07T23:34:59.512Z,8.69
2019-02-07T23:38:29.570Z,12.61
2019-02-07T23:41:59.848Z,6.55
2019-02-07T23:45:30.007Z,9.79
2019-02-07T23:49:00.092Z,8.32
2019-02-07T23:52:31.082Z,5.25
2019-02-07T23:56:01.196Z,9.76
2019-02-07T23:59:31.281Z,7.95
